Time;durP1;ratioP1;P1;durP2;ratioP2;P2;SDS_P1;SDS_P2;PMS_P1;PMS_P2;Temp;Humidity;BMP_temperature;BMP_pressure;BME280_temperature;BME280_humidity;BME280_pressure;Samples;Min_cycle;Max_cycle;Signal;HPM_P1;HPM_P2
2024/03/30 00:01:18;;;;;;;1.60;1.30;;;18.60;82.60;;;;;;4973241;28;20031;-32
2024/03/30 00:03:45;;;;;;;3.38;1.48;;;18.60;82.70;;;;;;4973439;28;20026;-33
2024/03/30 00:06:10;;;;;;;2.85;1.40;;;18.60;82.70;;;;;;4973290;28;20033;-32
2024/03/30 00:08:36;;;;;;;1.77;1.10;;;18.60;82.70;;;;;;4972983;28;20027;-31
2024/03/30 00:11:03;;;;;;;1.90;1.15;;;18.60;82.80;;;;;;4973237;28;20561;-33
2024/03/30 00:13:29;;;;;;;1.73;1.17;;;18.60;82.80;;;;;;4973288;28;20027;-33
2024/03/30 00:15:55;;;;;;;1.95;1.27;;;18.60;82.80;;;;;;4973280;28;20038;-32
2024/03/30 00:18:21;;;;;;;2.42;1.30;;;18.60;82.80;;;;;;4973130;28;20027;-32
2024/03/30 00:20:47;;;;;;;3.08;1.50;;;18.50;82.80;;;;;;4973190;28;20375;-33
2024/03/30 00:23:13;;;;;;;1.98;1.38;;;18.50;82.80;;;;;;4973660;28;20050;-33
2024/03/30 00:25:38;;;;;;;2.13;1.30;;;18.50;82.90;;;;;;4973784;28;20047;-33
2024/03/30 00:28:04;;;;;;;2.03;1.40;;;18.50;82.90;;;;;;4972977;28;20081;-32
2024/03/30 00:30:35;;;;;;;2.00;1.50;;;18.50;82.90;;;;;;4972989;28;20030;-33
2024/03/30 00:33:00;;;;;;;2.10;1.20;;;18.50;83.00;;;;;;4973377;28;20023;-37
2024/03/30 00:35:26;;;;;;;2.35;1.50;;;18.50;82.90;;;;;;4973260;28;20029;-36
2024/03/30 00:37:53;;;;;;;2.13;1.50;;;18.50;83.00;;;;;;4973039;28;20023;-34
2024/03/30 00:40:19;;;;;;;1.88;1.30;;;18.50;83.00;;;;;;4972975;28;20474;-31
2024/03/30 00:42:46;;;;;;;2.13;1.35;;;18.50;83.00;;;;;;4972862;28;20062;-33
2024/03/30 00:45:12;;;;;;;2.28;1.20;;;18.50;83.00;;;;;;4973128;28;20046;-34
2024/03/30 00:47:37;;;;;;;3.58;1.60;;;18.50;83.00;;;;;;4972929;28;20050;-31
2024/03/30 00:50:03;;;;;;;2.30;1.42;;;18.50;83.00;;;;;;5012985;23;20126;-33
2024/03/30 00:52:29;;;;;;;1.63;1.25;;;18.50;83.00;;;;;;4972940;28;20027;-33
2024/03/30 00:54:55;;;;;;;1.92;1.35;;;18.50;83.10;;;;;;4972844;28;20035;-35
2024/03/30 00:57:20;;;;;;;1.70;1.20;;;18.50;83.10;;;;;;4974389;28;20397;-32
2024/03/30 00:59:46;;;;;;;3.25;1.30;;;18.40;83.10;;;;;;4976639;28;20477;-32
2024/03/30 01:02:11;;;;;;;3.00;1.27;;;18.40;83.10;;;;;;4976603;28;20031;-35
2024/03/30 01:04:37;;;;;;;3.50;1.20;;;18.40;83.10;;;;;;4976576;28;20404;-33
2024/03/30 01:07:03;;;;;;;1.50;1.30;;;18.40;83.10;;;;;;4976571;28;20065;-32
2024/03/30 01:09:29;;;;;;;2.63;1.50;;;18.40;83.10;;;;;;4976332;28;20018;-34
2024/03/30 01:11:55;;;;;;;1.98;1.50;;;18.40;83.20;;;;;;4976295;28;20026;-34
2024/03/30 01:14:25;;;;;;;1.65;1.20;;;18.40;83.20;;;;;;4976419;28;20035;-32
2024/03/30 01:16:51;;;;;;;2.00;1.25;;;18.40;83.20;;;;;;4976321;28;20389;-33
2024/03/30 01:19:17;;;;;;;2.10;1.40;;;18.40;83.20;;;;;;4976171;28;20030;-33
2024/03/30 01:21:43;;;;;;;2.47;1.25;;;18.40;83.20;;;;;;4976152;28;20627;-34
2024/03/30 01:24:10;;;;;;;1.67;1.10;;;18.40;83.20;;;;;;4976083;28;20022;-33
2024/03/30 01:26:39;;;;;;;1.70;1.20;;;18.40;83.20;;;;;;4976109;28;20019;-35
2024/03/30 01:29:08;;;;;;;1.98;1.23;;;18.40;83.30;;;;;;4976027;28;20029;-33
2024/03/30 01:31:34;;;;;;;2.05;1.30;;;18.40;83.20;;;;;;4975909;28;20023;-35
2024/03/30 01:34:00;;;;;;;2.38;1.50;;;18.40;83.30;;;;;;4976007;28;20045;-33
2024/03/30 01:36:26;;;;;;;2.10;1.40;;;18.40;83.30;;;;;;4975998;28;20046;-34
2024/03/30 01:38:51;;;;;;;2.00;1.27;;;18.40;83.30;;;;;;4975661;28;20478;-33
2024/03/30 01:41:17;;;;;;;2.58;1.30;;;18.30;83.30;;;;;;4975729;28;20105;-34
2024/03/30 01:43:42;;;;;;;1.98;1.27;;;18.40;83.40;;;;;;4975926;28;20050;-35
2024/03/30 01:46:09;;;;;;;1.85;1.27;;;18.30;83.30;;;;;;4975704;28;20466;-34
2024/03/30 01:48:35;;;;;;;1.38;1.13;;;18.30;83.30;;;;;;4975587;28;20031;-32
2024/03/30 01:51:01;;;;;;;3.97;1.02;;;18.30;83.50;;;;;;4975664;28;20041;-32
2024/03/30 01:53:29;;;;;;;2.25;1.23;;;18.30;83.30;;;;;;4975587;28;20494;-33
2024/03/30 01:55:55;;;;;;;1.75;1.08;;;18.30;83.30;;;;;;4975865;28;20058;-34
2024/03/30 01:58:25;;;;;;;1.40;1.00;;;18.30;83.30;;;;;;4975426;28;20489;-34
2024/03/30 02:00:53;;;;;;;2.38;1.30;;;18.30;83.40;;;;;;4975345;28;20077;-34
2024/03/30 02:03:21;;;;;;;2.42;1.10;;;18.30;83.40;;;;;;4975524;28;20023;-34
2024/03/30 02:05:47;;;;;;;1.58;1.20;;;18.30;83.40;;;;;;4975282;28;20046;-34
2024/03/30 02:08:13;;;;;;;1.88;1.20;;;18.30;83.40;;;;;;4974496;28;20057;-34
2024/03/30 02:10:40;;;;;;;1.88;1.20;;;18.30;83.40;;;;;;4975080;28;20470;-33
2024/03/30 02:13:06;;;;;;;2.28;1.35;;;18.30;83.40;;;;;;4975331;28;20050;-34
2024/03/30 02:15:32;;;;;;;3.40;1.42;;;18.30;83.40;;;;;;4975251;28;20423;-34
2024/03/30 02:17:58;;;;;;;3.30;1.42;;;18.30;83.40;;;;;;4975112;28;20055;-34
2024/03/30 02:20:24;;;;;;;2.05;1.05;;;18.30;83.50;;;;;;4974972;28;20466;-33
2024/03/30 02:22:51;;;;;;;2.25;1.23;;;18.30;83.50;;;;;;4975049;28;20027;-33
2024/03/30 02:25:18;;;;;;;1.90;1.17;;;18.20;83.40;;;;;;4975225;28;20033;-34
2024/03/30 02:27:44;;;;;;;1.80;1.17;;;18.30;83.50;;;;;;4975133;28;20026;-32
2024/03/30 02:30:15;;;;;;;3.30;1.30;;;18.20;83.40;;;;;;4974957;28;20023;-33
2024/03/30 02:32:41;;;;;;;2.75;1.30;;;18.20;83.40;;;;;;4974982;28;20050;-34
2024/03/30 02:35:07;;;;;;;2.38;1.08;;;18.20;83.40;;;;;;4974755;28;20109;-34
2024/03/30 02:37:33;;;;;;;1.52;1.13;;;18.20;83.40;;;;;;4974759;28;20058;-32
2024/03/30 02:39:58;;;;;;;1.48;1.00;;;18.20;83.40;;;;;;4974750;28;20090;-34
2024/03/30 02:42:24;;;;;;;2.45;1.10;;;18.20;83.40;;;;;;4974684;28;20034;-33
2024/03/30 02:44:50;;;;;;;2.28;1.20;;;18.20;83.40;;;;;;4974686;28;20437;-33
2024/03/30 02:47:15;;;;;;;2.20;1.20;;;18.20;83.40;;;;;;4974590;28;20057;-34
2024/03/30 02:49:41;;;;;;;2.00;1.05;;;18.20;83.50;;;;;;4974239;28;20418;-34
2024/03/30 02:52:06;;;;;;;3.60;1.40;;;18.20;83.40;;;;;;4974536;28;20038;-34
2024/03/30 02:54:32;;;;;;;4.18;1.42;;;18.20;83.40;;;;;;4974587;28;20034;-32
2024/03/30 02:56:58;;;;;;;2.08;1.30;;;18.20;83.40;;;;;;4974392;28;20027;-35
2024/03/30 02:59:23;;;;;;;4.72;1.42;;;18.20;83.40;;;;;;4974385;28;20073;-33
2024/03/30 03:01:49;;;;;;;2.15;1.20;;;18.20;83.50;;;;;;4974375;28;20048;-33
2024/03/30 03:04:14;;;;;;;2.00;1.23;;;18.20;83.50;;;;;;4974223;28;20418;-34
2024/03/30 03:06:40;;;;;;;2.70;1.40;;;18.20;83.50;;;;;;4974236;28;20033;-34
2024/03/30 03:09:07;;;;;;;2.63;1.30;;;18.20;83.50;;;;;;4974200;28;20128;-33
2024/03/30 03:11:32;;;;;;;2.55;1.20;;;18.10;83.40;;;;;;4974222;28;20050;-35
2024/03/30 03:13:58;;;;;;;2.78;1.38;;;18.20;83.50;;;;;;4974229;28;20363;-35
2024/03/30 03:16:24;;;;;;;3.33;1.70;;;18.10;83.40;;;;;;4974037;28;20065;-34
2024/03/30 03:18:49;;;;;;;6.97;1.40;;;18.10;83.40;;;;;;4973853;28;20031;-33
2024/03/30 03:21:15;;;;;;;4.03;1.38;;;18.10;83.40;;;;;;4973661;28;20033;-34
2024/03/30 03:23:42;;;;;;;3.10;1.10;;;18.10;83.50;;;;;;4973983;28;20018;-34
2024/03/30 03:26:08;;;;;;;4.57;1.40;;;18.10;83.50;;;;;;4973963;28;20031;-34
2024/03/30 03:28:34;;;;;;;3.88;1.38;;;18.10;83.50;;;;;;4973656;28;20077;-34
2024/03/30 03:30:59;;;;;;;4.20;1.30;;;18.10;83.50;;;;;;4973971;28;20038;-33
2024/03/30 03:33:25;;;;;;;5.60;1.40;;;18.10;83.50;;;;;;4974257;28;20035;-35
2024/03/30 03:35:50;;;;;;;2.17;1.35;;;18.10;83.50;;;;;;4973843;28;20363;-36
2024/03/30 03:38:16;;;;;;;3.38;1.25;;;18.10;83.50;;;;;;4973742;28;20422;-34
2024/03/30 03:40:42;;;;;;;4.40;1.40;;;18.10;83.50;;;;;;4973780;28;20081;-35
2024/03/30 03:43:07;;;;;;;6.57;1.52;;;18.10;83.50;;;;;;4973810;28;20109;-34
2024/03/30 03:45:33;;;;;;;2.95;1.20;;;18.10;83.50;;;;;;4974009;28;20036;-34
2024/03/30 03:47:58;;;;;;;4.07;1.60;;;18.10;83.50;;;;;;4973831;28;20085;-33
2024/03/30 03:50:24;;;;;;;2.78;1.00;;;18.10;83.50;;;;;;4974477;28;20363;-33
2024/03/30 03:52:50;;;;;;;3.00;1.25;;;18.10;83.50;;;;;;4980083;28;20035;-34
2024/03/30 03:55:15;;;;;;;2.45;1.10;;;18.10;83.60;;;;;;4980426;28;20038;-34
2024/03/30 03:57:41;;;;;;;3.10;1.27;;;18.10;83.50;;;;;;4980741;28;20038;-33
2024/03/30 04:00:07;;;;;;;7.78;1.83;;;18.10;83.50;;;;;;4975808;28;20162;-32
2024/03/30 04:02:32;;;;;;;3.40;1.30;;;18.10;83.60;;;;;;4973889;28;20023;-34
2024/03/30 04:04:58;;;;;;;4.60;1.63;;;18.10;83.60;;;;;;4973458;28;20037;-33
2024/03/30 04:07:24;;;;;;;2.65;1.30;;;18.10;83.60;;;;;;4973255;28;20030;-34
2024/03/30 04:09:52;;;;;;;4.63;1.33;;;18.10;83.50;;;;;;4973430;28;20173;-35
2024/03/30 04:12:18;;;;;;;2.97;1.38;;;18.10;83.60;;;;;;4973431;28;20058;-35
2024/03/30 04:14:44;;;;;;;6.05;1.67;;;18.00;83.50;;;;;;4973208;28;20077;-34
2024/03/30 04:17:10;;;;;;;4.70;1.33;;;18.10;83.50;;;;;;4971940;28;20022;-32
2024/03/30 04:19:35;;;;;;;3.30;1.40;;;18.00;83.50;;;;;;4973063;28;20482;-32
2024/03/30 04:22:02;;;;;;;3.60;1.38;;;18.10;83.60;;;;;;4972929;28;20031;-33
2024/03/30 04:24:28;;;;;;;6.40;1.60;;;18.00;83.50;;;;;;4973136;28;20046;-34
2024/03/30 04:26:53;;;;;;;6.68;1.77;;;18.00;83.60;;;;;;4973125;28;20479;-34
2024/03/30 04:29:19;;;;;;;4.32;1.30;;;18.00;83.50;;;;;;4972956;28;20021;-33
2024/03/30 04:31:45;;;;;;;4.28;1.40;;;18.00;83.50;;;;;;4973580;28;20040;-32
2024/03/30 04:34:11;;;;;;;2.83;1.40;;;18.00;83.60;;;;;;4977131;28;20026;-34
2024/03/30 04:36:36;;;;;;;5.53;1.58;;;18.00;83.50;;;;;;4977015;28;20634;-34
2024/03/30 04:39:04;;;;;;;2.88;1.40;;;18.00;83.50;;;;;;4977108;28;20030;-35
2024/03/30 04:41:30;;;;;;;3.88;1.50;;;18.00;83.50;;;;;;4976768;28;20390;-34
2024/03/30 04:43:55;;;;;;;4.28;1.50;;;18.00;83.50;;;;;;4975638;28;20034;-33
2024/03/30 04:46:21;;;;;;;6.47;1.83;;;18.00;83.50;;;;;;4977085;28;20054;-31
2024/03/30 04:48:47;;;;;;;3.85;1.48;;;18.00;83.50;;;;;;4976538;28;20023;-33
2024/03/30 04:51:13;;;;;;;5.32;1.60;;;18.00;83.50;;;;;;4976653;28;20379;-33
2024/03/30 04:53:39;;;;;;;5.82;1.25;;;18.00;83.50;;;;;;4976767;28;20033;-34
2024/03/30 04:56:09;;;;;;;4.97;1.60;;;18.00;83.50;;;;;;4976634;28;20038;-34
2024/03/30 04:58:35;;;;;;;7.95;1.63;;;18.00;83.50;;;;;;4976601;28;20023;-33
2024/03/30 05:01:08;;;;;;;4.07;1.60;;;18.00;83.50;;;;;;4974928;28;20030;-35
2024/03/30 05:03:34;;;;;;;5.55;1.65;;;17.90;83.40;;;;;;4976535;28;20512;-34
2024/03/30 05:06:04;;;;;;;4.57;1.92;;;18.00;83.50;;;;;;4976528;28;20532;-34
2024/03/30 05:08:31;;;;;;;7.10;1.88;;;18.00;83.50;;;;;;4976437;28;20045;-34
2024/03/30 05:10:57;;;;;;;5.38;1.30;;;18.00;83.40;;;;;;4976460;28;20546;-33
2024/03/30 05:13:23;;;;;;;4.90;2.00;;;18.00;83.50;;;;;;4976333;28;20110;-35
2024/03/30 05:15:49;;;;;;;5.60;1.45;;;17.90;83.40;;;;;;4976301;28;20026;-32
2024/03/30 05:18:16;;;;;;;4.38;1.40;;;17.90;83.40;;;;;;4976219;28;20027;-32
2024/03/30 05:20:53;;;;;;;4.28;1.58;;;17.90;83.40;;;;;;4976096;28;20541;-33
2024/03/30 05:23:22;;;;;;;7.00;1.90;;;17.90;83.40;;;;;;4976287;28;20027;-32
2024/03/30 05:25:49;;;;;;;4.10;1.30;;;17.90;83.50;;;;;;4974830;28;20030;-33
2024/03/30 05:28:17;;;;;;;7.32;1.63;;;17.90;83.40;;;;;;4976083;28;20029;-33
2024/03/30 05:30:43;;;;;;;5.28;1.70;;;17.90;83.40;;;;;;4975980;28;20094;-33
2024/03/30 05:33:11;;;;;;;7.30;1.50;;;17.90;83.50;;;;;;4976033;28;20122;-33
2024/03/30 05:35:37;;;;;;;6.72;1.73;;;17.90;83.40;;;;;;4975995;28;20038;-32
2024/03/30 05:38:03;;;;;;;4.40;1.55;;;17.90;83.50;;;;;;4975932;28;20078;-33
2024/03/30 05:40:32;;;;;;;7.10;1.55;;;17.90;83.50;;;;;;4975598;28;20474;-32
2024/03/30 05:42:58;;;;;;;9.15;1.98;;;17.90;83.50;;;;;;4975821;28;20131;-35
2024/03/30 05:45:24;;;;;;;8.93;1.80;;;17.90;83.50;;;;;;4975852;28;20038;-33
2024/03/30 05:47:50;;;;;;;7.13;1.70;;;17.90;83.40;;;;;;4974408;28;20019;-35
2024/03/30 05:50:16;;;;;;;8.02;1.92;;;17.90;83.50;;;;;;4975508;28;20105;-32
2024/03/30 05:52:42;;;;;;;6.97;2.13;;;17.90;83.50;;;;;;4975717;28;20027;-33
2024/03/30 05:55:08;;;;;;;5.00;1.50;;;17.90;83.50;;;;;;4975605;28;20027;-32
2024/03/30 05:57:33;;;;;;;5.63;1.83;;;17.90;83.50;;;;;;4975581;28;20490;-33
2024/03/30 05:59:59;;;;;;;6.90;1.92;;;17.90;83.50;;;;;;4975421;28;20085;-32
2024/03/30 06:02:25;;;;;;;6.30;1.80;;;17.90;83.50;;;;;;4975579;28;20042;-34
2024/03/30 06:04:51;;;;;;;4.68;1.65;;;17.90;83.50;;;;;;4975558;28;20047;-33
2024/03/30 06:07:17;;;;;;;5.25;1.60;;;17.90;83.60;;;;;;4975498;28;20053;-33
2024/03/30 06:09:43;;;;;;;8.90;2.20;;;17.90;83.60;;;;;;4975264;28;20406;-33
2024/03/30 06:12:09;;;;;;;8.75;2.13;;;17.90;83.60;;;;;;4975369;28;20371;-35
2024/03/30 06:14:34;;;;;;;8.90;2.28;;;17.90;83.50;;;;;;4974029;28;20054;-33
2024/03/30 06:17:00;;;;;;;7.18;2.00;;;17.90;83.60;;;;;;4973867;28;20026;-33
2024/03/30 06:19:26;;;;;;;7.13;1.75;;;17.90;83.60;;;;;;4975157;28;20055;-33
2024/03/30 06:21:54;;;;;;;5.35;1.80;;;17.90;83.60;;;;;;4975102;28;20030;-33
2024/03/30 06:24:20;;;;;;;7.35;2.08;;;17.90;83.50;;;;;;4973763;28;20062;-33
2024/03/30 06:26:45;;;;;;;7.57;1.70;;;17.90;83.60;;;;;;4975191;28;20474;-33
2024/03/30 06:29:11;;;;;;;6.32;1.90;;;17.90;83.60;;;;;;4975021;28;20023;-34
2024/03/30 06:31:37;;;;;;;7.05;1.90;;;17.90;84.40;;;;;;4975216;28;20043;-33
2024/03/30 06:34:06;;;;;;;8.25;1.90;;;17.90;84.40;;;;;;4975156;28;20042;-32
2024/03/30 06:36:32;;;;;;;10.43;2.42;;;17.90;83.60;;;;;;4975053;28;20482;-33
2024/03/30 06:38:58;;;;;;;5.13;1.73;;;17.90;83.60;;;;;;4974684;28;20093;-32
2024/03/30 06:44:09;;;;;;;9.13;2.38;;;17.90;83.60;;;;;;4974850;28;20073;-34
2024/03/30 06:46:35;;;;;;;7.05;1.65;;;17.90;83.70;;;;;;4974723;28;20110;-33
2024/03/30 06:51:29;;;;;;;5.95;1.85;;;17.90;83.60;;;;;;4993912;23;20059;-32
2024/03/30 06:53:55;;;;;;;6.50;2.00;;;17.90;83.60;;;;;;4974376;28;20054;-31
2024/03/30 06:56:21;;;;;;;7.35;2.10;;;17.90;83.50;;;;;;4973930;28;20101;-31
2024/03/30 06:58:46;;;;;;;6.15;2.00;;;17.90;83.60;;;;;;4975074;28;20071;-33
2024/03/30 07:01:13;;;;;;;7.82;2.10;;;17.90;83.60;;;;;;4974179;28;20035;-33
2024/03/30 07:03:39;;;;;;;6.68;1.70;;;17.90;83.50;;;;;;4974395;28;20504;-32
2024/03/30 07:06:05;;;;;;;11.30;2.15;;;17.90;83.50;;;;;;4974175;28;20027;-32
2024/03/30 07:08:31;;;;;;;11.07;1.85;;;17.90;83.50;;;;;;4974349;28;20081;-34
2024/03/30 07:10:56;;;;;;;8.68;2.20;;;17.90;83.50;;;;;;4974135;28;20034;-33
2024/03/30 07:13:22;;;;;;;7.00;1.90;;;17.90;83.60;;;;;;4974200;28;20433;-33
2024/03/30 07:15:48;;;;;;;8.20;2.08;;;17.90;83.60;;;;;;4974176;28;20038;-33
2024/03/30 07:18:14;;;;;;;6.07;2.10;;;17.90;83.50;;;;;;4974107;28;20049;-33
2024/03/30 07:20:40;;;;;;;7.10;2.05;;;17.90;83.50;;;;;;4973841;28;20019;-33
2024/03/30 07:23:05;;;;;;;6.75;1.75;;;17.90;83.50;;;;;;4973973;28;20080;-33
2024/03/30 07:25:31;;;;;;;7.88;2.45;;;18.00;83.60;;;;;;4974017;28;20031;-33
2024/03/30 07:27:57;;;;;;;11.55;2.28;;;18.00;83.60;;;;;;4973988;28;20038;-33
2024/03/30 07:30:22;;;;;;;6.20;1.80;;;17.90;83.60;;;;;;4973768;28;20548;-33
2024/03/30 07:32:48;;;;;;;10.77;2.20;;;17.90;83.60;;;;;;4973988;28;20038;-33
2024/03/30 07:35:14;;;;;;;7.45;2.05;;;17.90;83.50;;;;;;4973786;28;20118;-33
2024/03/30 07:37:39;;;;;;;8.15;2.25;;;17.90;83.50;;;;;;4972473;28;20050;-33
2024/03/30 07:40:05;;;;;;;7.53;1.95;;;17.90;83.50;;;;;;4973649;28;20061;-33
2024/03/30 07:42:31;;;;;;;7.82;1.75;;;17.90;83.60;;;;;;4973767;28;20031;-33
2024/03/30 07:44:57;;;;;;;6.93;2.03;;;17.90;83.60;;;;;;4973731;28;20033;-33
2024/03/30 07:47:23;;;;;;;7.30;1.77;;;18.00;83.70;;;;;;4973588;28;20019;-33
2024/03/30 07:49:48;;;;;;;7.22;2.20;;;17.90;83.60;;;;;;4973207;28;20482;-32
2024/03/30 07:52:14;;;;;;;6.97;1.98;;;18.00;83.70;;;;;;4973865;28;20027;-33
2024/03/30 07:54:39;;;;;;;4.97;1.80;;;18.00;83.70;;;;;;4973465;28;20501;-32
2024/03/30 07:57:05;;;;;;;5.78;2.15;;;18.00;83.70;;;;;;4973504;28;20039;-34
2024/03/30 07:59:31;;;;;;;9.13;2.58;;;18.00;83.70;;;;;;4973385;28;20094;-34
2024/03/30 08:01:56;;;;;;;7.03;2.28;;;18.00;83.60;;;;;;4973379;28;20035;-31
2024/03/30 08:04:22;;;;;;;8.18;2.20;;;18.00;83.60;;;;;;4973262;28;20015;-31
2024/03/30 08:06:49;;;;;;;6.60;1.92;;;18.00;83.60;;;;;;4972641;28;20027;-32
2024/03/30 08:09:15;;;;;;;6.30;1.98;;;18.10;83.60;;;;;;4973257;28;20038;-31
2024/03/30 08:11:43;;;;;;;7.05;2.22;;;18.10;83.50;;;;;;4973402;28;20031;-34
2024/03/30 08:14:09;;;;;;;7.78;2.30;;;18.10;83.50;;;;;;4973600;28;20556;-32
2024/03/30 08:16:35;;;;;;;7.43;2.15;;;18.10;83.40;;;;;;4972068;28;20027;-31
2024/03/30 08:19:03;;;;;;;6.45;1.80;;;18.10;83.40;;;;;;4972983;28;20441;-31
2024/03/30 08:21:32;;;;;;;6.95;2.15;;;18.10;83.40;;;;;;4973081;28;20246;-32
2024/03/30 08:23:57;;;;;;;6.13;2.30;;;18.10;83.30;;;;;;4973922;28;20027;-33
2024/03/30 08:26:23;;;;;;;7.85;2.22;;;18.10;83.30;;;;;;4973193;28;20026;-33
2024/03/30 08:28:49;;;;;;;9.52;2.42;;;18.10;83.20;;;;;;4973084;28;20390;-32
2024/03/30 08:31:16;;;;;;;7.78;2.10;;;18.10;83.20;;;;;;4975335;28;20041;-32
2024/03/30 08:33:42;;;;;;;5.97;2.05;;;18.10;83.20;;;;;;4980667;28;20030;-33
2024/03/30 08:36:08;;;;;;;7.47;1.73;;;18.20;83.30;;;;;;4975173;28;20023;-33
2024/03/30 08:38:33;;;;;;;6.75;2.40;;;18.20;83.20;;;;;;4973441;28;20069;-33
2024/03/30 08:40:59;;;;;;;4.90;1.88;;;18.20;83.20;;;;;;4971515;28;20058;-33
2024/03/30 08:43:27;;;;;;;6.13;2.10;;;18.20;83.20;;;;;;4973048;28;20042;-33
2024/03/30 08:45:54;;;;;;;7.88;2.03;;;18.20;83.20;;;;;;4972993;28;20027;-33
2024/03/30 08:48:20;;;;;;;7.22;2.30;;;18.20;83.20;;;;;;4972889;28;20047;-33
2024/03/30 08:50:46;;;;;;;6.50;1.98;;;18.20;83.20;;;;;;4975676;28;20042;-33
2024/03/30 08:53:12;;;;;;;6.80;2.00;;;18.10;83.90;;;;;;4973696;28;20026;-33
2024/03/30 08:55:38;;;;;;;6.43;1.80;;;18.20;83.10;;;;;;4973296;28;20034;-33
2024/03/30 08:58:06;;;;;;;5.20;1.67;;;18.20;83.20;;;;;;4973110;28;20027;-33
2024/03/30 09:00:32;;;;;;;7.25;1.70;;;18.20;83.20;;;;;;4973161;28;20454;-33
2024/03/30 09:02:58;;;;;;;5.93;1.73;;;18.20;83.20;;;;;;4972862;28;20429;-33
2024/03/30 09:05:26;;;;;;;7.47;1.85;;;18.20;83.20;;;;;;4973005;28;20098;-33
2024/03/30 09:07:52;;;;;;;6.75;1.90;;;18.20;83.10;;;;;;4972724;28;20043;-31
2024/03/30 09:10:19;;;;;;;4.60;1.70;;;18.20;83.10;;;;;;4972668;28;20027;-32
2024/03/30 09:12:45;;;;;;;4.13;1.83;;;18.20;83.20;;;;;;4972689;28;20390;-32
2024/03/30 09:15:11;;;;;;;7.45;2.10;;;18.20;83.20;;;;;;4972357;28;20027;-34
2024/03/30 09:17:36;;;;;;;5.22;1.85;;;18.20;83.20;;;;;;4972889;28;20027;-31
2024/03/30 09:20:02;;;;;;;7.38;1.50;;;18.20;83.20;;;;;;4976191;28;20027;-33
2024/03/30 09:22:28;;;;;;;6.68;2.15;;;18.10;83.20;;;;;;4976310;28;20041;-33
2024/03/30 09:24:57;;;;;;;8.07;1.92;;;18.20;83.20;;;;;;4976281;28;20031;-33
2024/03/30 09:27:23;;;;;;;5.65;1.88;;;18.20;83.20;;;;;;4976089;28;20018;-33
2024/03/30 09:29:50;;;;;;;5.47;1.73;;;18.20;83.30;;;;;;4975439;28;20432;-33
2024/03/30 09:32:16;;;;;;;9.43;1.98;;;18.20;83.30;;;;;;4987352;28;20518;-33
2024/03/30 09:34:41;;;;;;;6.65;1.90;;;18.20;83.20;;;;;;4975062;28;20026;-33
2024/03/30 09:37:12;;;;;;;6.82;1.95;;;18.20;83.30;;;;;;4974608;28;20089;-33
2024/03/30 09:39:39;;;;;;;4.72;1.88;;;18.20;83.30;;;;;;4975479;28;20405;-33
2024/03/30 09:42:11;;;;;;;7.82;2.00;;;18.10;83.20;;;;;;4974946;28;20019;-33
2024/03/30 09:44:36;;;;;;;5.90;1.92;;;18.20;83.20;;;;;;4974937;28;20073;-33
2024/03/30 09:47:04;;;;;;;5.32;1.83;;;18.20;83.20;;;;;;4976125;28;20024;-34
2024/03/30 09:49:34;;;;;;;5.55;1.63;;;18.20;83.30;;;;;;4976515;28;20029;-32
2024/03/30 09:52:06;;;;;;;6.13;1.70;;;18.20;83.40;;;;;;4975357;28;20031;-35
2024/03/30 09:54:33;;;;;;;6.38;1.92;;;18.20;83.30;;;;;;4974939;28;20035;-34
2024/03/30 09:56:59;;;;;;;5.28;1.58;;;18.20;83.40;;;;;;4974536;28;20098;-32
2024/03/30 09:59:26;;;;;;;5.15;1.42;;;18.20;84.10;;;;;;4974573;28;20069;-31
2024/03/30 10:01:52;;;;;;;5.15;1.75;;;18.20;83.30;;;;;;4975454;28;20222;-31
2024/03/30 10:04:17;;;;;;;6.07;1.90;;;18.20;83.20;;;;;;4974935;28;20027;-32
2024/03/30 10:06:48;;;;;;;5.55;1.67;;;18.20;83.20;;;;;;4974337;28;20030;-32
2024/03/30 10:09:15;;;;;;;5.18;1.92;;;18.20;83.20;;;;;;4970087;28;20105;-31
2024/03/30 10:11:43;;;;;;;4.88;1.85;;;18.20;83.20;;;;;;4974915;28;20038;-32
2024/03/30 10:14:26;;;;;;;6.50;1.85;;;18.30;83.10;;;;;;4975197;28;20034;-32
2024/03/30 10:16:52;;;;;;;7.20;2.30;;;18.30;83.10;;;;;;4975216;28;20030;-34
2024/03/30 10:19:19;;;;;;;4.60;2.00;;;18.30;83.10;;;;;;4975059;28;20034;-34
2024/03/30 10:21:45;;;;;;;3.90;1.85;;;18.30;83.90;;;;;;4974876;28;20486;-32
2024/03/30 10:24:12;;;;;;;6.00;2.05;;;18.30;83.10;;;;;;4975282;28;20475;-33
2024/03/30 10:26:41;;;;;;;4.43;1.58;;;18.30;83.10;;;;;;4975123;28;20023;-34
2024/03/30 10:29:08;;;;;;;6.57;1.80;;;18.30;83.00;;;;;;4974464;28;20023;-33
2024/03/30 10:31:33;;;;;;;3.70;1.73;;;18.30;83.10;;;;;;4974639;28;20025;-33
2024/03/30 10:33:59;;;;;;;4.13;1.60;;;18.30;83.00;;;;;;4975033;28;20106;-33
2024/03/30 10:36:27;;;;;;;4.28;1.67;;;18.30;83.00;;;;;;4975386;28;20031;-34
2024/03/30 10:38:52;;;;;;;4.78;2.00;;;18.30;83.00;;;;;;4974982;28;20037;-34
2024/03/30 10:41:18;;;;;;;7.60;1.80;;;18.30;82.90;;;;;;4974671;28;20385;-34
2024/03/30 10:43:44;;;;;;;4.78;1.77;;;18.30;83.00;;;;;;4974931;28;20037;-33
2024/03/30 10:46:12;;;;;;;4.38;1.83;;;18.30;82.90;;;;;;4974844;28;20081;-34
2024/03/30 10:48:39;;;;;;;3.50;1.58;;;18.30;82.90;;;;;;4974774;28;20466;-33
2024/03/30 10:51:05;;;;;;;5.43;1.60;;;18.30;83.70;;;;;;4973160;28;20039;-34
2024/03/30 10:53:31;;;;;;;4.40;1.70;;;18.40;83.70;;;;;;4975021;28;20066;-33
2024/03/30 10:55:57;;;;;;;4.68;1.60;;;18.40;82.90;;;;;;4974605;28;20031;-34
2024/03/30 10:58:23;;;;;;;5.03;1.70;;;18.30;82.80;;;;;;4974527;28;20019;-36
2024/03/30 11:00:49;;;;;;;5.00;1.60;;;18.30;82.80;;;;;;4974570;28;20018;-34
2024/03/30 11:03:17;;;;;;;8.63;1.77;;;18.30;82.80;;;;;;4974622;28;20050;-34
2024/03/30 11:05:43;;;;;;;15.38;3.20;;;18.30;82.70;;;;;;4973509;28;20015;-37
2024/03/30 11:08:10;;;;;;;15.70;4.05;;;18.40;83.30;;;;;;4975177;28;20053;-34
2024/03/30 11:10:37;;;;;;;13.98;4.10;;;18.30;83.70;;;;;;4975036;28;20105;-33
2024/03/30 11:13:04;;;;;;;17.00;3.92;;;18.40;84.00;;;;;;4975223;28;20031;-34
2024/03/30 11:15:36;;;;;;;12.43;3.95;;;18.30;83.90;;;;;;4974568;28;20322;-33
2024/03/30 11:18:04;;;;;;;13.57;3.88;;;18.40;84.00;;;;;;4974310;28;20034;-33
2024/03/30 11:20:49;;;;;;;16.77;3.97;;;18.30;83.90;;;;;;4974576;28;20055;-34
2024/03/30 11:23:41;;;;;;;14.25;3.67;;;18.40;83.90;;;;;;4974135;28;20023;-33
2024/03/30 11:26:09;;;;;;;14.38;3.90;;;18.40;83.90;;;;;;4974416;28;20490;-33
2024/03/30 11:29:04;;;;;;;12.60;3.65;;;18.40;83.80;;;;;;4974166;28;20026;-33
2024/03/30 11:31:40;;;;;;;17.67;3.92;;;18.40;83.80;;;;;;4974197;28;20545;-33
2024/03/30 11:34:26;;;;;;;15.65;4.00;;;18.30;83.70;;;;;;4974303;28;20179;-33
2024/03/30 11:37:24;;;;;;;15.15;3.42;;;18.30;83.60;;;;;;4974656;28;20031;-34
2024/03/30 11:39:56;;;;;;;12.50;3.30;;;18.40;83.60;;;;;;4974018;28;20027;-33
2024/03/30 11:42:34;;;;;;;12.20;3.95;;;18.40;83.60;;;;;;4978248;28;20074;-33
2024/03/30 11:45:01;;;;;;;11.93;3.20;;;18.40;83.60;;;;;;4978211;28;20022;-33
2024/03/30 11:47:27;;;;;;;10.40;3.45;;;18.40;83.50;;;;;;4974960;28;20034;-33
2024/03/30 11:49:52;;;;;;;13.45;3.35;;;18.40;83.40;;;;;;4973949;28;20034;-33
2024/03/30 11:52:18;;;;;;;10.38;3.38;;;18.40;83.50;;;;;;4973193;28;20050;-33
2024/03/30 11:54:47;;;;;;;9.63;3.25;;;18.40;83.40;;;;;;4974162;28;20058;-33
2024/03/30 11:57:14;;;;;;;10.82;3.35;;;18.40;83.40;;;;;;4973867;28;20019;-33
2024/03/30 11:59:48;;;;;;;11.18;2.97;;;18.40;83.40;;;;;;4973926;28;20042;-33
2024/03/30 12:02:13;;;;;;;7.90;3.30;;;18.40;83.40;;;;;;4974183;28;20027;-33
2024/03/30 12:04:44;;;;;;;12.98;3.42;;;18.40;83.30;;;;;;4972699;28;20037;-33
2024/03/30 12:07:10;;;;;;;11.82;3.42;;;18.40;83.30;;;;;;4973811;28;20046;-33
2024/03/30 12:09:36;;;;;;;9.45;2.90;;;18.40;83.30;;;;;;4974039;28;20482;-34
2024/03/30 12:12:26;;;;;;;9.20;3.05;;;18.40;83.30;;;;;;4973976;28;20034;-33
2024/03/30 12:14:53;;;;;;;7.63;3.10;;;18.40;83.20;;;;;;4974054;28;20057;-33
2024/03/30 12:17:19;;;;;;;8.63;2.60;;;18.40;83.30;;;;;;4973573;28;20027;-37
2024/03/30 12:19:47;;;;;;;8.15;2.88;;;18.40;83.20;;;;;;4972500;28;20027;-32
2024/03/30 12:22:14;;;;;;;6.07;2.83;;;18.40;83.30;;;;;;4973590;28;20454;-33
2024/03/30 12:24:41;;;;;;;9.77;3.13;;;18.40;83.20;;;;;;4988027;28;20031;-32
2024/03/30 12:27:07;;;;;;;9.93;3.05;;;18.40;83.20;;;;;;4973473;28;20031;-31
2024/03/30 12:29:32;;;;;;;6.65;2.60;;;18.40;83.20;;;;;;4972115;28;20033;-31
2024/03/30 12:31:59;;;;;;;8.90;2.97;;;18.40;83.20;;;;;;4973350;28;20030;-31
2024/03/30 12:34:25;;;;;;;9.43;2.90;;;18.40;83.20;;;;;;4972101;28;20117;-31
2024/03/30 12:36:50;;;;;;;5.65;2.50;;;18.40;83.20;;;;;;4973234;28;20109;-31
2024/03/30 12:39:17;;;;;;;8.82;2.88;;;18.40;83.20;;;;;;4972994;28;20031;-33
2024/03/30 12:41:43;;;;;;;7.78;2.92;;;18.40;83.20;;;;;;4973191;28;20082;-33
2024/03/30 12:44:08;;;;;;;9.88;2.95;;;18.40;83.20;;;;;;4973845;28;20027;-33
2024/03/30 12:46:35;;;;;;;7.93;2.97;;;18.40;83.20;;;;;;4973376;28;20462;-33
2024/03/30 12:49:02;;;;;;;8.60;2.67;;;18.40;83.20;;;;;;4973261;28;20431;-32